<?xml version="1.0" encoding="UTF-8" standalone="no" ?>
<gpx xmlns="http://www.topografix.com/GPX/1/1" xmlns:xsi="http://www.w3.org/2001/XMLSchema-instance" xsi:schemaLocation="http://www.topografix.com/GPX/1/1 http://www.topografix.com/GPX/1/1/gpx.xsd" version="1.1" creator="VisuGPX - https://www.visugpx.com">
  <metadata>
    <name> Lizio matin</name>
    <desc><![CDATA[10.6km très beau circuit un peu accidenté]]></desc>
  </metadata>
  <trk>
    <name><![CDATA[lizio matin]]></name>
    <desc><![CDATA[<h1>OruxMaps</h1><br /><hr align="center" width="480" style="height: 2px; width: 517px"/><h2>Nom: lizio matin</h2><br /><p>Temps de départ: 03/13/2015 10:04</p><p>Temps d'arrivée: 03/13/2015 13:03</p><p>Distance: 10,6km (02:58)</p><p>Temps déplacement: 02:21</p><p>Vitesse moyenne: 3,5km/h</p><p>Vitesse moyenne: 4,5km/h</p><p>Vitess Max.: 8km/h</p><p>Altitude minimale: 49m</p><p>Altitude maximale: 122m</p><p>Vitesse d'élévation: 260,7m/h</p><p>Vitesse de descente: -221,1m/h</p><p>Gain Altitude: 315m</p><p>Perte Altitude: -317m</p><p>Temps d'élévation: 01:12</p><p>Temps de descente: 01:26</p><hr align="center" width="480" style="height: 2px; width: 517px"/>]]></desc>
    <trkseg>
      <trkpt lat="47.86466" lon="-2.52262">
        <ele>121.44</ele>
        <time>2015-03-13T09:04:43Z</time>
      </trkpt>
      <trkpt lat="47.86451" lon="-2.52245">
        <ele>122.08</ele>
        <time>2015-03-13T09:06:05Z</time>
      </trkpt>
      <trkpt lat="47.86454" lon="-2.52217">
        <ele>121.47</ele>
        <time>2015-03-13T09:06:20Z</time>
      </trkpt>
      <trkpt lat="47.86456" lon="-2.5219">
        <ele>120.18</ele>
        <time>2015-03-13T09:06:36Z</time>
      </trkpt>
      <trkpt lat="47.86458" lon="-2.52163">
        <ele>119.36</ele>
        <time>2015-03-13T09:06:52Z</time>
      </trkpt>
      <trkpt lat="47.86462" lon="-2.52136">
        <ele>116.99</ele>
        <time>2015-03-13T09:07:11Z</time>
      </trkpt>
      <trkpt lat="47.86463" lon="-2.52109">
        <ele>115.46</ele>
        <time>2015-03-13T09:07:23Z</time>
      </trkpt>
      <trkpt lat="47.86465" lon="-2.5208">
        <ele>114.37</ele>
        <time>2015-03-13T09:07:39Z</time>
      </trkpt>
      <trkpt lat="47.86467" lon="-2.52053">
        <ele>112.72</ele>
        <time>2015-03-13T09:07:55Z</time>
      </trkpt>
      <trkpt lat="47.86469" lon="-2.52025">
        <ele>110.78</ele>
        <time>2015-03-13T09:08:14Z</time>
      </trkpt>
      <trkpt lat="47.86471" lon="-2.51997">
        <ele>110.03</ele>
        <time>2015-03-13T09:08:28Z</time>
      </trkpt>
      <trkpt lat="47.86473" lon="-2.5197">
        <ele>108.57</ele>
        <time>2015-03-13T09:09:14Z</time>
      </trkpt>
      <trkpt lat="47.86474" lon="-2.51943">
        <ele>108.18</ele>
        <time>2015-03-13T09:09:51Z</time>
      </trkpt>
      <trkpt lat="47.86476" lon="-2.51916">
        <ele>108.33</ele>
        <time>2015-03-13T09:10:07Z</time>
      </trkpt>
      <trkpt lat="47.86478" lon="-2.51887">
        <ele>109.33</ele>
        <time>2015-03-13T09:10:22Z</time>
      </trkpt>
      <trkpt lat="47.86483" lon="-2.5186">
        <ele>108.7</ele>
        <time>2015-03-13T09:10:36Z</time>
      </trkpt>
      <trkpt lat="47.86484" lon="-2.51832">
        <ele>107.42</ele>
        <time>2015-03-13T09:10:51Z</time>
      </trkpt>
      <trkpt lat="47.86486" lon="-2.51805">
        <ele>106.71</ele>
        <time>2015-03-13T09:11:05Z</time>
      </trkpt>
      <trkpt lat="47.86488" lon="-2.51777">
        <ele>105.02</ele>
        <time>2015-03-13T09:11:20Z</time>
      </trkpt>
      <trkpt lat="47.86476" lon="-2.51754">
        <ele>102.68</ele>
        <time>2015-03-13T09:11:46Z</time>
      </trkpt>
      <trkpt lat="47.86463" lon="-2.51735">
        <ele>99.3</ele>
        <time>2015-03-13T09:12:07Z</time>
      </trkpt>
      <trkpt lat="47.86448" lon="-2.51719">
        <ele>95.4</ele>
        <time>2015-03-13T09:12:24Z</time>
      </trkpt>
      <trkpt lat="47.86432" lon="-2.51705">
        <ele>94.52</ele>
        <time>2015-03-13T09:12:44Z</time>
      </trkpt>
      <trkpt lat="47.86415" lon="-2.51699">
        <ele>92.83</ele>
        <time>2015-03-13T09:13:13Z</time>
      </trkpt>
      <trkpt lat="47.86421" lon="-2.51673">
        <ele>88.6</ele>
        <time>2015-03-13T09:13:38Z</time>
      </trkpt>
      <trkpt lat="47.86417" lon="-2.51647">
        <ele>83.01</ele>
        <time>2015-03-13T09:14:17Z</time>
      </trkpt>
      <trkpt lat="47.86415" lon="-2.51619">
        <ele>82.01</ele>
        <time>2015-03-13T09:14:32Z</time>
      </trkpt>
      <trkpt lat="47.86415" lon="-2.51591">
        <ele>82.71</ele>
        <time>2015-03-13T09:14:50Z</time>
      </trkpt>
      <trkpt lat="47.86407" lon="-2.51565">
        <ele>82.09</ele>
        <time>2015-03-13T09:15:50Z</time>
      </trkpt>
      <trkpt lat="47.86389" lon="-2.51561">
        <ele>84.43</ele>
        <time>2015-03-13T09:16:15Z</time>
      </trkpt>
      <trkpt lat="47.86371" lon="-2.51564">
        <ele>81.53</ele>
        <time>2015-03-13T09:16:47Z</time>
      </trkpt>
      <trkpt lat="47.86352" lon="-2.51563">
        <ele>79.45</ele>
        <time>2015-03-13T09:17:19Z</time>
      </trkpt>
      <trkpt lat="47.86337" lon="-2.51548">
        <ele>81.52</ele>
        <time>2015-03-13T09:18:17Z</time>
      </trkpt>
      <trkpt lat="47.86321" lon="-2.51558">
        <ele>80.79</ele>
        <time>2015-03-13T09:19:07Z</time>
      </trkpt>
      <trkpt lat="47.86305" lon="-2.51544">
        <ele>79.98</ele>
        <time>2015-03-13T09:19:27Z</time>
      </trkpt>
      <trkpt lat="47.86286" lon="-2.51541">
        <ele>79.6</ele>
        <time>2015-03-13T09:19:49Z</time>
      </trkpt>
      <trkpt lat="47.86287" lon="-2.51568">
        <ele>77.43</ele>
        <time>2015-03-13T09:20:24Z</time>
      </trkpt>
      <trkpt lat="47.86274" lon="-2.51587">
        <ele>77.22</ele>
        <time>2015-03-13T09:20:48Z</time>
      </trkpt>
      <trkpt lat="47.86257" lon="-2.51598">
        <ele>78.63</ele>
        <time>2015-03-13T09:21:10Z</time>
      </trkpt>
      <trkpt lat="47.86239" lon="-2.51603">
        <ele>83.63</ele>
        <time>2015-03-13T09:21:30Z</time>
      </trkpt>
      <trkpt lat="47.8623" lon="-2.51627">
        <ele>86.76</ele>
        <time>2015-03-13T09:21:49Z</time>
      </trkpt>
      <trkpt lat="47.86223" lon="-2.51652">
        <ele>88.91</ele>
        <time>2015-03-13T09:22:19Z</time>
      </trkpt>
      <trkpt lat="47.86206" lon="-2.51645">
        <ele>90.02</ele>
        <time>2015-03-13T09:22:41Z</time>
      </trkpt>
      <trkpt lat="47.86195" lon="-2.51623">
        <ele>88.17</ele>
        <time>2015-03-13T09:22:58Z</time>
      </trkpt>
      <trkpt lat="47.86198" lon="-2.51596">
        <ele>91.9</ele>
        <time>2015-03-13T09:24:54Z</time>
      </trkpt>
      <trkpt lat="47.86204" lon="-2.5157">
        <ele>91.6</ele>
        <time>2015-03-13T09:25:18Z</time>
      </trkpt>
      <trkpt lat="47.86205" lon="-2.51543">
        <ele>91.9</ele>
        <time>2015-03-13T09:25:36Z</time>
      </trkpt>
      <trkpt lat="47.86216" lon="-2.51521">
        <ele>90.38</ele>
        <time>2015-03-13T09:25:56Z</time>
      </trkpt>
      <trkpt lat="47.86226" lon="-2.51498">
        <ele>90.34</ele>
        <time>2015-03-13T09:26:12Z</time>
      </trkpt>
      <trkpt lat="47.8621" lon="-2.51485">
        <ele>88.48</ele>
        <time>2015-03-13T09:26:41Z</time>
      </trkpt>
      <trkpt lat="47.8619" lon="-2.51489">
        <ele>86.77</ele>
        <time>2015-03-13T09:26:59Z</time>
      </trkpt>
      <trkpt lat="47.86172" lon="-2.51492">
        <ele>84.29</ele>
        <time>2015-03-13T09:27:19Z</time>
      </trkpt>
      <trkpt lat="47.86156" lon="-2.51478">
        <ele>84.69</ele>
        <time>2015-03-13T09:27:51Z</time>
      </trkpt>
      <trkpt lat="47.86166" lon="-2.51454">
        <ele>87.04</ele>
        <time>2015-03-13T09:28:34Z</time>
      </trkpt>
      <trkpt lat="47.8618" lon="-2.51437">
        <ele>89.07</ele>
        <time>2015-03-13T09:28:56Z</time>
      </trkpt>
      <trkpt lat="47.86194" lon="-2.5142">
        <ele>88.82</ele>
        <time>2015-03-13T09:29:07Z</time>
      </trkpt>
      <trkpt lat="47.86207" lon="-2.514">
        <ele>89.18</ele>
        <time>2015-03-13T09:29:25Z</time>
      </trkpt>
      <trkpt lat="47.86217" lon="-2.51377">
        <ele>89.14</ele>
        <time>2015-03-13T09:29:38Z</time>
      </trkpt>
      <trkpt lat="47.86209" lon="-2.51352">
        <ele>86.41</ele>
        <time>2015-03-13T09:30:08Z</time>
      </trkpt>
      <trkpt lat="47.8619" lon="-2.51352">
        <ele>83.09</ele>
        <time>2015-03-13T09:30:26Z</time>
      </trkpt>
      <trkpt lat="47.86176" lon="-2.51335">
        <ele>82.09</ele>
        <time>2015-03-13T09:30:47Z</time>
      </trkpt>
      <trkpt lat="47.86172" lon="-2.51308">
        <ele>82.56</ele>
        <time>2015-03-13T09:31:12Z</time>
      </trkpt>
      <trkpt lat="47.86154" lon="-2.51314">
        <ele>88.02</ele>
        <time>2015-03-13T09:31:56Z</time>
      </trkpt>
      <trkpt lat="47.86136" lon="-2.5132">
        <ele>92.27</ele>
        <time>2015-03-13T09:33:12Z</time>
      </trkpt>
      <trkpt lat="47.86118" lon="-2.51314">
        <ele>94.45</ele>
        <time>2015-03-13T09:33:30Z</time>
      </trkpt>
      <trkpt lat="47.861" lon="-2.51312">
        <ele>95.56</ele>
        <time>2015-03-13T09:33:45Z</time>
      </trkpt>
      <trkpt lat="47.86081" lon="-2.51312">
        <ele>95.87</ele>
        <time>2015-03-13T09:34:03Z</time>
      </trkpt>
      <trkpt lat="47.86063" lon="-2.51315">
        <ele>96.46</ele>
        <time>2015-03-13T09:34:20Z</time>
      </trkpt>
      <trkpt lat="47.86044" lon="-2.51318">
        <ele>97.2</ele>
        <time>2015-03-13T09:34:37Z</time>
      </trkpt>
      <trkpt lat="47.86026" lon="-2.51321">
        <ele>97.41</ele>
        <time>2015-03-13T09:34:53Z</time>
      </trkpt>
      <trkpt lat="47.86008" lon="-2.51325">
        <ele>97.64</ele>
        <time>2015-03-13T09:35:09Z</time>
      </trkpt>
      <trkpt lat="47.8599" lon="-2.51331">
        <ele>99.03</ele>
        <time>2015-03-13T09:35:23Z</time>
      </trkpt>
      <trkpt lat="47.8598" lon="-2.51355">
        <ele>100.24</ele>
        <time>2015-03-13T09:35:39Z</time>
      </trkpt>
      <trkpt lat="47.85969" lon="-2.51378">
        <ele>101.21</ele>
        <time>2015-03-13T09:35:56Z</time>
      </trkpt>
      <trkpt lat="47.85954" lon="-2.51394">
        <ele>102.08</ele>
        <time>2015-03-13T09:36:11Z</time>
      </trkpt>
      <trkpt lat="47.85936" lon="-2.51401">
        <ele>102.38</ele>
        <time>2015-03-13T09:36:24Z</time>
      </trkpt>
      <trkpt lat="47.85925" lon="-2.51423">
        <ele>103.38</ele>
        <time>2015-03-13T09:36:42Z</time>
      </trkpt>
      <trkpt lat="47.85916" lon="-2.51447">
        <ele>104.03</ele>
        <time>2015-03-13T09:36:58Z</time>
      </trkpt>
      <trkpt lat="47.85902" lon="-2.51465">
        <ele>103.56</ele>
        <time>2015-03-13T09:37:25Z</time>
      </trkpt>
      <trkpt lat="47.85885" lon="-2.51453">
        <ele>103.42</ele>
        <time>2015-03-13T09:37:41Z</time>
      </trkpt>
      <trkpt lat="47.85869" lon="-2.51438">
        <ele>102.04</ele>
        <time>2015-03-13T09:38:00Z</time>
      </trkpt>
      <trkpt lat="47.85853" lon="-2.51425">
        <ele>101.25</ele>
        <time>2015-03-13T09:38:15Z</time>
      </trkpt>
      <trkpt lat="47.85836" lon="-2.51415">
        <ele>101.43</ele>
        <time>2015-03-13T09:38:32Z</time>
      </trkpt>
      <trkpt lat="47.85819" lon="-2.51405">
        <ele>99.64</ele>
        <time>2015-03-13T09:38:50Z</time>
      </trkpt>
      <trkpt lat="47.85807" lon="-2.51426">
        <ele>96.33</ele>
        <time>2015-03-13T09:39:34Z</time>
      </trkpt>
      <trkpt lat="47.85803" lon="-2.51452">
        <ele>94.54</ele>
        <time>2015-03-13T09:39:57Z</time>
      </trkpt>
      <trkpt lat="47.85797" lon="-2.51478">
        <ele>93.69</ele>
        <time>2015-03-13T09:40:14Z</time>
      </trkpt>
      <trkpt lat="47.85789" lon="-2.51503">
        <ele>93.62</ele>
        <time>2015-03-13T09:40:38Z</time>
      </trkpt>
      <trkpt lat="47.85785" lon="-2.51529">
        <ele>92.56</ele>
        <time>2015-03-13T09:40:57Z</time>
      </trkpt>
      <trkpt lat="47.8578" lon="-2.51556">
        <ele>92.08</ele>
        <time>2015-03-13T09:41:13Z</time>
      </trkpt>
      <trkpt lat="47.85773" lon="-2.51581">
        <ele>91.84</ele>
        <time>2015-03-13T09:41:30Z</time>
      </trkpt>
      <trkpt lat="47.85767" lon="-2.51607">
        <ele>89.23</ele>
        <time>2015-03-13T09:42:22Z</time>
      </trkpt>
      <trkpt lat="47.85761" lon="-2.51634">
        <ele>88.11</ele>
        <time>2015-03-13T09:42:44Z</time>
      </trkpt>
      <trkpt lat="47.85756" lon="-2.5166">
        <ele>87.34</ele>
        <time>2015-03-13T09:43:01Z</time>
      </trkpt>
      <trkpt lat="47.85745" lon="-2.51682">
        <ele>87.41</ele>
        <time>2015-03-13T09:43:25Z</time>
      </trkpt>
      <trkpt lat="47.8573" lon="-2.51698">
        <ele>88.53</ele>
        <time>2015-03-13T09:43:41Z</time>
      </trkpt>
      <trkpt lat="47.85714" lon="-2.51711">
        <ele>90.39</ele>
        <time>2015-03-13T09:44:01Z</time>
      </trkpt>
      <trkpt lat="47.85699" lon="-2.51727">
        <ele>91.53</ele>
        <time>2015-03-13T09:44:17Z</time>
      </trkpt>
      <trkpt lat="47.85688" lon="-2.51749">
        <ele>91.71</ele>
        <time>2015-03-13T09:44:33Z</time>
      </trkpt>
      <trkpt lat="47.85673" lon="-2.51767">
        <ele>91.96</ele>
        <time>2015-03-13T09:44:52Z</time>
      </trkpt>
      <trkpt lat="47.85662" lon="-2.51791">
        <ele>92.49</ele>
        <time>2015-03-13T09:45:10Z</time>
      </trkpt>
      <trkpt lat="47.85651" lon="-2.51812">
        <ele>91.33</ele>
        <time>2015-03-13T09:45:27Z</time>
      </trkpt>
      <trkpt lat="47.85644" lon="-2.51838">
        <ele>90.9</ele>
        <time>2015-03-13T09:45:55Z</time>
      </trkpt>
      <trkpt lat="47.85639" lon="-2.51865">
        <ele>89.13</ele>
        <time>2015-03-13T09:46:23Z</time>
      </trkpt>
      <trkpt lat="47.8563" lon="-2.51888">
        <ele>91.6</ele>
        <time>2015-03-13T09:46:51Z</time>
      </trkpt>
      <trkpt lat="47.85623" lon="-2.51914">
        <ele>95.29</ele>
        <time>2015-03-13T09:47:13Z</time>
      </trkpt>
      <trkpt lat="47.85618" lon="-2.5194">
        <ele>96.65</ele>
        <time>2015-03-13T09:47:30Z</time>
      </trkpt>
      <trkpt lat="47.85612" lon="-2.51966">
        <ele>98.46</ele>
        <time>2015-03-13T09:47:53Z</time>
      </trkpt>
      <trkpt lat="47.85608" lon="-2.51993">
        <ele>100.05</ele>
        <time>2015-03-13T09:48:11Z</time>
      </trkpt>
      <trkpt lat="47.85607" lon="-2.52019">
        <ele>101.44</ele>
        <time>2015-03-13T09:48:30Z</time>
      </trkpt>
      <trkpt lat="47.85609" lon="-2.52047">
        <ele>102.3</ele>
        <time>2015-03-13T09:48:48Z</time>
      </trkpt>
      <trkpt lat="47.85625" lon="-2.52062">
        <ele>104.36</ele>
        <time>2015-03-13T09:49:09Z</time>
      </trkpt>
      <trkpt lat="47.85642" lon="-2.52073">
        <ele>107.02</ele>
        <time>2015-03-13T09:49:27Z</time>
      </trkpt>
      <trkpt lat="47.85658" lon="-2.52086">
        <ele>109.16</ele>
        <time>2015-03-13T09:49:45Z</time>
      </trkpt>
      <trkpt lat="47.85675" lon="-2.52098">
        <ele>111.21</ele>
        <time>2015-03-13T09:50:12Z</time>
      </trkpt>
      <trkpt lat="47.85691" lon="-2.52112">
        <ele>113.5</ele>
        <time>2015-03-13T09:50:30Z</time>
      </trkpt>
      <trkpt lat="47.85708" lon="-2.52126">
        <ele>115.06</ele>
        <time>2015-03-13T09:50:47Z</time>
      </trkpt>
      <trkpt lat="47.85724" lon="-2.5214">
        <ele>116.71</ele>
        <time>2015-03-13T09:51:06Z</time>
      </trkpt>
      <trkpt lat="47.8574" lon="-2.52154">
        <ele>118.03</ele>
        <time>2015-03-13T09:51:24Z</time>
      </trkpt>
      <trkpt lat="47.85757" lon="-2.52166">
        <ele>118.56</ele>
        <time>2015-03-13T09:51:43Z</time>
      </trkpt>
      <trkpt lat="47.85775" lon="-2.52173">
        <ele>119.13</ele>
        <time>2015-03-13T09:51:59Z</time>
      </trkpt>
      <trkpt lat="47.85792" lon="-2.52182">
        <ele>119.49</ele>
        <time>2015-03-13T09:52:20Z</time>
      </trkpt>
      <trkpt lat="47.85811" lon="-2.52191">
        <ele>120.57</ele>
        <time>2015-03-13T09:52:34Z</time>
      </trkpt>
      <trkpt lat="47.85829" lon="-2.52198">
        <ele>121.61</ele>
        <time>2015-03-13T09:52:51Z</time>
      </trkpt>
      <trkpt lat="47.85848" lon="-2.52203">
        <ele>122.18</ele>
        <time>2015-03-13T09:53:09Z</time>
      </trkpt>
      <trkpt lat="47.85857" lon="-2.52179">
        <ele>121.19</ele>
        <time>2015-03-13T09:53:37Z</time>
      </trkpt>
      <trkpt lat="47.85865" lon="-2.52154">
        <ele>120.95</ele>
        <time>2015-03-13T09:53:55Z</time>
      </trkpt>
      <trkpt lat="47.85882" lon="-2.52142">
        <ele>121.27</ele>
        <time>2015-03-13T09:54:48Z</time>
      </trkpt>
      <trkpt lat="47.85898" lon="-2.52128">
        <ele>122.03</ele>
        <time>2015-03-13T09:55:04Z</time>
      </trkpt>
      <trkpt lat="47.85912" lon="-2.52111">
        <ele>122.54</ele>
        <time>2015-03-13T09:55:20Z</time>
      </trkpt>
      <trkpt lat="47.85928" lon="-2.52097">
        <ele>122.89</ele>
        <time>2015-03-13T09:55:35Z</time>
      </trkpt>
      <trkpt lat="47.85946" lon="-2.52087">
        <ele>121.7</ele>
        <time>2015-03-13T09:55:49Z</time>
      </trkpt>
      <trkpt lat="47.85964" lon="-2.52091">
        <ele>120.65</ele>
        <time>2015-03-13T09:56:09Z</time>
      </trkpt>
      <trkpt lat="47.85982" lon="-2.52098">
        <ele>120.01</ele>
        <time>2015-03-13T09:56:25Z</time>
      </trkpt>
      <trkpt lat="47.86" lon="-2.52102">
        <ele>119.88</ele>
        <time>2015-03-13T09:56:39Z</time>
      </trkpt>
      <trkpt lat="47.86019" lon="-2.52102">
        <ele>119.92</ele>
        <time>2015-03-13T09:56:56Z</time>
      </trkpt>
      <trkpt lat="47.86037" lon="-2.521">
        <ele>119.29</ele>
        <time>2015-03-13T09:57:13Z</time>
      </trkpt>
      <trkpt lat="47.86054" lon="-2.52089">
        <ele>118.94</ele>
        <time>2015-03-13T09:57:28Z</time>
      </trkpt>
      <trkpt lat="47.86073" lon="-2.52083">
        <ele>118.85</ele>
        <time>2015-03-13T09:57:45Z</time>
      </trkpt>
      <trkpt lat="47.86084" lon="-2.5206">
        <ele>118.63</ele>
        <time>2015-03-13T09:58:11Z</time>
      </trkpt>
      <trkpt lat="47.86096" lon="-2.52038">
        <ele>119.33</ele>
        <time>2015-03-13T09:58:28Z</time>
      </trkpt>
      <trkpt lat="47.861" lon="-2.52012">
        <ele>118.67</ele>
        <time>2015-03-13T09:58:48Z</time>
      </trkpt>
      <trkpt lat="47.86096" lon="-2.51985">
        <ele>116.43</ele>
        <time>2015-03-13T09:59:04Z</time>
      </trkpt>
      <trkpt lat="47.86098" lon="-2.51958">
        <ele>114.89</ele>
        <time>2015-03-13T09:59:18Z</time>
      </trkpt>
      <trkpt lat="47.86104" lon="-2.51931">
        <ele>114.58</ele>
        <time>2015-03-13T09:59:35Z</time>
      </trkpt>
      <trkpt lat="47.86106" lon="-2.51903">
        <ele>113.33</ele>
        <time>2015-03-13T09:59:53Z</time>
      </trkpt>
      <trkpt lat="47.8611" lon="-2.51877">
        <ele>112.35</ele>
        <time>2015-03-13T10:00:09Z</time>
      </trkpt>
      <trkpt lat="47.86113" lon="-2.51849">
        <ele>111.77</ele>
        <time>2015-03-13T10:00:25Z</time>
      </trkpt>
      <trkpt lat="47.86115" lon="-2.51822">
        <ele>110.85</ele>
        <time>2015-03-13T10:00:41Z</time>
      </trkpt>
      <trkpt lat="47.86117" lon="-2.51795">
        <ele>109.52</ele>
        <time>2015-03-13T10:00:57Z</time>
      </trkpt>
      <trkpt lat="47.86119" lon="-2.51767">
        <ele>107.93</ele>
        <time>2015-03-13T10:01:15Z</time>
      </trkpt>
      <trkpt lat="47.86121" lon="-2.51739">
        <ele>106.58</ele>
        <time>2015-03-13T10:01:31Z</time>
      </trkpt>
      <trkpt lat="47.86124" lon="-2.51711">
        <ele>105.54</ele>
        <time>2015-03-13T10:01:48Z</time>
      </trkpt>
      <trkpt lat="47.86136" lon="-2.51692">
        <ele>104.35</ele>
        <time>2015-03-13T10:02:06Z</time>
      </trkpt>
      <trkpt lat="47.86156" lon="-2.51691">
        <ele>103.11</ele>
        <time>2015-03-13T10:02:22Z</time>
      </trkpt>
      <trkpt lat="47.86174" lon="-2.51689">
        <ele>102.19</ele>
        <time>2015-03-13T10:02:34Z</time>
      </trkpt>
      <trkpt lat="47.86192" lon="-2.51685">
        <ele>102.05</ele>
        <time>2015-03-13T10:02:49Z</time>
      </trkpt>
      <trkpt lat="47.86189" lon="-2.51657">
        <ele>101.11</ele>
        <time>2015-03-13T10:03:50Z</time>
      </trkpt>
      <trkpt lat="47.86194" lon="-2.51631">
        <ele>96.92</ele>
        <time>2015-03-13T10:04:21Z</time>
      </trkpt>
      <trkpt lat="47.86203" lon="-2.51606">
        <ele>92.8</ele>
        <time>2015-03-13T10:06:26Z</time>
      </trkpt>
      <trkpt lat="47.86209" lon="-2.5158">
        <ele>93.19</ele>
        <time>2015-03-13T10:06:44Z</time>
      </trkpt>
      <trkpt lat="47.86206" lon="-2.51553">
        <ele>93.57</ele>
        <time>2015-03-13T10:07:00Z</time>
      </trkpt>
      <trkpt lat="47.86219" lon="-2.51533">
        <ele>92.29</ele>
        <time>2015-03-13T10:07:20Z</time>
      </trkpt>
      <trkpt lat="47.86229" lon="-2.51511">
        <ele>89.9</ele>
        <time>2015-03-13T10:07:44Z</time>
      </trkpt>
      <trkpt lat="47.86219" lon="-2.51489">
        <ele>87.97</ele>
        <time>2015-03-13T10:08:06Z</time>
      </trkpt>
      <trkpt lat="47.86201" lon="-2.51485">
        <ele>86.02</ele>
        <time>2015-03-13T10:08:25Z</time>
      </trkpt>
      <trkpt lat="47.86184" lon="-2.51494">
        <ele>83.72</ele>
        <time>2015-03-13T10:08:44Z</time>
      </trkpt>
      <trkpt lat="47.86165" lon="-2.51486">
        <ele>82.2</ele>
        <time>2015-03-13T10:09:00Z</time>
      </trkpt>
      <trkpt lat="47.8615" lon="-2.51472">
        <ele>82.17</ele>
        <time>2015-03-13T10:09:34Z</time>
      </trkpt>
      <trkpt lat="47.86165" lon="-2.51456">
        <ele>83.1</ele>
        <time>2015-03-13T10:10:03Z</time>
      </trkpt>
      <trkpt lat="47.86181" lon="-2.51441">
        <ele>83.45</ele>
        <time>2015-03-13T10:10:25Z</time>
      </trkpt>
      <trkpt lat="47.86197" lon="-2.51426">
        <ele>83.86</ele>
        <time>2015-03-13T10:10:43Z</time>
      </trkpt>
      <trkpt lat="47.8621" lon="-2.51406">
        <ele>83.98</ele>
        <time>2015-03-13T10:10:58Z</time>
      </trkpt>
      <trkpt lat="47.86216" lon="-2.51378">
        <ele>84.89</ele>
        <time>2015-03-13T10:11:14Z</time>
      </trkpt>
      <trkpt lat="47.86207" lon="-2.51354">
        <ele>82.97</ele>
        <time>2015-03-13T10:11:41Z</time>
      </trkpt>
      <trkpt lat="47.86188" lon="-2.51349">
        <ele>80.82</ele>
        <time>2015-03-13T10:12:01Z</time>
      </trkpt>
      <trkpt lat="47.86172" lon="-2.51334">
        <ele>82.36</ele>
        <time>2015-03-13T10:12:22Z</time>
      </trkpt>
      <trkpt lat="47.86176" lon="-2.51308">
        <ele>84.72</ele>
        <time>2015-03-13T10:12:53Z</time>
      </trkpt>
      <trkpt lat="47.86192" lon="-2.51295">
        <ele>85.44</ele>
        <time>2015-03-13T10:13:11Z</time>
      </trkpt>
      <trkpt lat="47.862" lon="-2.5127">
        <ele>86.2</ele>
        <time>2015-03-13T10:13:30Z</time>
      </trkpt>
      <trkpt lat="47.86197" lon="-2.51242">
        <ele>85.34</ele>
        <time>2015-03-13T10:13:46Z</time>
      </trkpt>
      <trkpt lat="47.86183" lon="-2.51226">
        <ele>85.42</ele>
        <time>2015-03-13T10:14:46Z</time>
      </trkpt>
      <trkpt lat="47.86184" lon="-2.51199">
        <ele>86.03</ele>
        <time>2015-03-13T10:15:22Z</time>
      </trkpt>
      <trkpt lat="47.86182" lon="-2.51173">
        <ele>87.1</ele>
        <time>2015-03-13T10:15:43Z</time>
      </trkpt>
      <trkpt lat="47.86177" lon="-2.51146">
        <ele>87.96</ele>
        <time>2015-03-13T10:15:59Z</time>
      </trkpt>
      <trkpt lat="47.8617" lon="-2.51121">
        <ele>88.31</ele>
        <time>2015-03-13T10:16:14Z</time>
      </trkpt>
      <trkpt lat="47.86165" lon="-2.51094">
        <ele>86.36</ele>
        <time>2015-03-13T10:16:33Z</time>
      </trkpt>
      <trkpt lat="47.86166" lon="-2.51067">
        <ele>79.22</ele>
        <time>2015-03-13T10:17:03Z</time>
      </trkpt>
      <trkpt lat="47.86166" lon="-2.51039">
        <ele>77.58</ele>
        <time>2015-03-13T10:17:35Z</time>
      </trkpt>
      <trkpt lat="47.86156" lon="-2.51014">
        <ele>77.07</ele>
        <time>2015-03-13T10:17:52Z</time>
      </trkpt>
      <trkpt lat="47.86145" lon="-2.50991">
        <ele>75.59</ele>
        <time>2015-03-13T10:18:05Z</time>
      </trkpt>
      <trkpt lat="47.86128" lon="-2.50981">
        <ele>78.26</ele>
        <time>2015-03-13T10:18:19Z</time>
      </trkpt>
      <trkpt lat="47.86111" lon="-2.50971">
        <ele>82.88</ele>
        <time>2015-03-13T10:18:32Z</time>
      </trkpt>
      <trkpt lat="47.86097" lon="-2.50952">
        <ele>83.93</ele>
        <time>2015-03-13T10:18:49Z</time>
      </trkpt>
      <trkpt lat="47.86085" lon="-2.50932">
        <ele>86.11</ele>
        <time>2015-03-13T10:19:07Z</time>
      </trkpt>
      <trkpt lat="47.86076" lon="-2.50907">
        <ele>85.71</ele>
        <time>2015-03-13T10:19:25Z</time>
      </trkpt>
      <trkpt lat="47.86065" lon="-2.50885">
        <ele>84.58</ele>
        <time>2015-03-13T10:19:42Z</time>
      </trkpt>
      <trkpt lat="47.86061" lon="-2.50859">
        <ele>82.79</ele>
        <time>2015-03-13T10:20:04Z</time>
      </trkpt>
      <trkpt lat="47.86054" lon="-2.50834">
        <ele>83.57</ele>
        <time>2015-03-13T10:20:21Z</time>
      </trkpt>
      <trkpt lat="47.86049" lon="-2.50807">
        <ele>83.93</ele>
        <time>2015-03-13T10:20:34Z</time>
      </trkpt>
      <trkpt lat="47.86038" lon="-2.50784">
        <ele>78.3</ele>
        <time>2015-03-13T10:21:00Z</time>
      </trkpt>
      <trkpt lat="47.86025" lon="-2.50766">
        <ele>75.85</ele>
        <time>2015-03-13T10:21:17Z</time>
      </trkpt>
      <trkpt lat="47.8601" lon="-2.50751">
        <ele>75.15</ele>
        <time>2015-03-13T10:21:31Z</time>
      </trkpt>
      <trkpt lat="47.86028" lon="-2.50756">
        <ele>71.61</ele>
        <time>2015-03-13T10:22:02Z</time>
      </trkpt>
      <trkpt lat="47.8601" lon="-2.50748">
        <ele>70.34</ele>
        <time>2015-03-13T10:22:34Z</time>
      </trkpt>
      <trkpt lat="47.85999" lon="-2.50727">
        <ele>70.25</ele>
        <time>2015-03-13T10:22:49Z</time>
      </trkpt>
      <trkpt lat="47.8599" lon="-2.50701">
        <ele>70.23</ele>
        <time>2015-03-13T10:23:01Z</time>
      </trkpt>
      <trkpt lat="47.8598" lon="-2.50677">
        <ele>68.18</ele>
        <time>2015-03-13T10:23:19Z</time>
      </trkpt>
      <trkpt lat="47.85971" lon="-2.50653">
        <ele>67.12</ele>
        <time>2015-03-13T10:23:38Z</time>
      </trkpt>
      <trkpt lat="47.85974" lon="-2.50627">
        <ele>64.75</ele>
        <time>2015-03-13T10:24:17Z</time>
      </trkpt>
      <trkpt lat="47.8599" lon="-2.50612">
        <ele>64.78</ele>
        <time>2015-03-13T10:24:33Z</time>
      </trkpt>
      <trkpt lat="47.85982" lon="-2.50587">
        <ele>62.59</ele>
        <time>2015-03-13T10:24:55Z</time>
      </trkpt>
      <trkpt lat="47.85966" lon="-2.50576">
        <ele>60.62</ele>
        <time>2015-03-13T10:25:18Z</time>
      </trkpt>
      <trkpt lat="47.85948" lon="-2.5057">
        <ele>58.31</ele>
        <time>2015-03-13T10:25:32Z</time>
      </trkpt>
      <trkpt lat="47.85931" lon="-2.5056">
        <ele>57.61</ele>
        <time>2015-03-13T10:25:50Z</time>
      </trkpt>
      <trkpt lat="47.85912" lon="-2.5055">
        <ele>57.01</ele>
        <time>2015-03-13T10:26:06Z</time>
      </trkpt>
      <trkpt lat="47.85894" lon="-2.50543">
        <ele>58.28</ele>
        <time>2015-03-13T10:26:26Z</time>
      </trkpt>
      <trkpt lat="47.85877" lon="-2.50534">
        <ele>59.85</ele>
        <time>2015-03-13T10:26:42Z</time>
      </trkpt>
      <trkpt lat="47.85859" lon="-2.50541">
        <ele>60.32</ele>
        <time>2015-03-13T10:27:01Z</time>
      </trkpt>
      <trkpt lat="47.85841" lon="-2.50543">
        <ele>59.86</ele>
        <time>2015-03-13T10:27:24Z</time>
      </trkpt>
      <trkpt lat="47.85823" lon="-2.50534">
        <ele>59.92</ele>
        <time>2015-03-13T10:27:35Z</time>
      </trkpt>
      <trkpt lat="47.85804" lon="-2.50528">
        <ele>61.9</ele>
        <time>2015-03-13T10:27:50Z</time>
      </trkpt>
      <trkpt lat="47.85787" lon="-2.50517">
        <ele>63.19</ele>
        <time>2015-03-13T10:28:06Z</time>
      </trkpt>
      <trkpt lat="47.85768" lon="-2.5051">
        <ele>62.27</ele>
        <time>2015-03-13T10:28:23Z</time>
      </trkpt>
      <trkpt lat="47.8575" lon="-2.50499">
        <ele>66.19</ele>
        <time>2015-03-13T10:28:43Z</time>
      </trkpt>
      <trkpt lat="47.85733" lon="-2.50489">
        <ele>69.49</ele>
        <time>2015-03-13T10:28:58Z</time>
      </trkpt>
      <trkpt lat="47.85714" lon="-2.5049">
        <ele>76.81</ele>
        <time>2015-03-13T10:29:50Z</time>
      </trkpt>
      <trkpt lat="47.85697" lon="-2.50497">
        <ele>76.54</ele>
        <time>2015-03-13T10:30:07Z</time>
      </trkpt>
      <trkpt lat="47.8568" lon="-2.50505">
        <ele>75.98</ele>
        <time>2015-03-13T10:30:34Z</time>
      </trkpt>
      <trkpt lat="47.85661" lon="-2.50508">
        <ele>74.7</ele>
        <time>2015-03-13T10:31:02Z</time>
      </trkpt>
      <trkpt lat="47.85642" lon="-2.50509">
        <ele>74.89</ele>
        <time>2015-03-13T10:31:57Z</time>
      </trkpt>
      <trkpt lat="47.85624" lon="-2.50502">
        <ele>76.57</ele>
        <time>2015-03-13T10:32:29Z</time>
      </trkpt>
      <trkpt lat="47.85606" lon="-2.50502">
        <ele>78</ele>
        <time>2015-03-13T10:32:59Z</time>
      </trkpt>
      <trkpt lat="47.85588" lon="-2.50507">
        <ele>77.66</ele>
        <time>2015-03-13T10:33:13Z</time>
      </trkpt>
      <trkpt lat="47.85572" lon="-2.50519">
        <ele>76.65</ele>
        <time>2015-03-13T10:33:42Z</time>
      </trkpt>
      <trkpt lat="47.85567" lon="-2.50547">
        <ele>77.24</ele>
        <time>2015-03-13T10:34:01Z</time>
      </trkpt>
      <trkpt lat="47.85555" lon="-2.50569">
        <ele>77.8</ele>
        <time>2015-03-13T10:34:18Z</time>
      </trkpt>
      <trkpt lat="47.85542" lon="-2.50589">
        <ele>77.15</ele>
        <time>2015-03-13T10:34:31Z</time>
      </trkpt>
      <trkpt lat="47.85527" lon="-2.50605">
        <ele>74.94</ele>
        <time>2015-03-13T10:34:48Z</time>
      </trkpt>
      <trkpt lat="47.85509" lon="-2.50613">
        <ele>72.34</ele>
        <time>2015-03-13T10:35:06Z</time>
      </trkpt>
      <trkpt lat="47.85497" lon="-2.50634">
        <ele>69.11</ele>
        <time>2015-03-13T10:35:22Z</time>
      </trkpt>
      <trkpt lat="47.85485" lon="-2.50654">
        <ele>61.63</ele>
        <time>2015-03-13T10:35:41Z</time>
      </trkpt>
      <trkpt lat="47.8547" lon="-2.50673">
        <ele>58.72</ele>
        <time>2015-03-13T10:36:00Z</time>
      </trkpt>
      <trkpt lat="47.85455" lon="-2.50691">
        <ele>58.21</ele>
        <time>2015-03-13T10:36:10Z</time>
      </trkpt>
      <trkpt lat="47.85438" lon="-2.50704">
        <ele>57.76</ele>
        <time>2015-03-13T10:36:21Z</time>
      </trkpt>
      <trkpt lat="47.8542" lon="-2.50711">
        <ele>61.89</ele>
        <time>2015-03-13T10:36:41Z</time>
      </trkpt>
      <trkpt lat="47.85402" lon="-2.50716">
        <ele>66.52</ele>
        <time>2015-03-13T10:37:00Z</time>
      </trkpt>
      <trkpt lat="47.85384" lon="-2.50724">
        <ele>66.4</ele>
        <time>2015-03-13T10:37:24Z</time>
      </trkpt>
      <trkpt lat="47.85366" lon="-2.50717">
        <ele>67.4</ele>
        <time>2015-03-13T10:37:46Z</time>
      </trkpt>
      <trkpt lat="47.85363" lon="-2.5069">
        <ele>67.97</ele>
        <time>2015-03-13T10:38:01Z</time>
      </trkpt>
      <trkpt lat="47.85357" lon="-2.50663">
        <ele>67.07</ele>
        <time>2015-03-13T10:38:13Z</time>
      </trkpt>
      <trkpt lat="47.85355" lon="-2.50636">
        <ele>66.27</ele>
        <time>2015-03-13T10:38:29Z</time>
      </trkpt>
      <trkpt lat="47.85351" lon="-2.50609">
        <ele>65.17</ele>
        <time>2015-03-13T10:38:44Z</time>
      </trkpt>
      <trkpt lat="47.85352" lon="-2.50582">
        <ele>64.57</ele>
        <time>2015-03-13T10:39:00Z</time>
      </trkpt>
      <trkpt lat="47.85363" lon="-2.50558">
        <ele>63.9</ele>
        <time>2015-03-13T10:39:18Z</time>
      </trkpt>
      <trkpt lat="47.85375" lon="-2.50537">
        <ele>62.05</ele>
        <time>2015-03-13T10:39:32Z</time>
      </trkpt>
      <trkpt lat="47.85382" lon="-2.50512">
        <ele>61.77</ele>
        <time>2015-03-13T10:39:45Z</time>
      </trkpt>
      <trkpt lat="47.85386" lon="-2.50485">
        <ele>61.76</ele>
        <time>2015-03-13T10:40:00Z</time>
      </trkpt>
      <trkpt lat="47.8539" lon="-2.50458">
        <ele>61.17</ele>
        <time>2015-03-13T10:40:17Z</time>
      </trkpt>
      <trkpt lat="47.854" lon="-2.50434">
        <ele>60.97</ele>
        <time>2015-03-13T10:40:43Z</time>
      </trkpt>
      <trkpt lat="47.85405" lon="-2.50408">
        <ele>59.86</ele>
        <time>2015-03-13T10:41:01Z</time>
      </trkpt>
      <trkpt lat="47.85408" lon="-2.5038">
        <ele>59.91</ele>
        <time>2015-03-13T10:41:18Z</time>
      </trkpt>
      <trkpt lat="47.8539" lon="-2.50373">
        <ele>56.18</ele>
        <time>2015-03-13T10:42:10Z</time>
      </trkpt>
      <trkpt lat="47.85383" lon="-2.50347">
        <ele>56.96</ele>
        <time>2015-03-13T10:42:42Z</time>
      </trkpt>
      <trkpt lat="47.85387" lon="-2.50319">
        <ele>65.06</ele>
        <time>2015-03-13T10:43:04Z</time>
      </trkpt>
      <trkpt lat="47.8538" lon="-2.50294">
        <ele>68.97</ele>
        <time>2015-03-13T10:43:29Z</time>
      </trkpt>
      <trkpt lat="47.85381" lon="-2.50267">
        <ele>68.66</ele>
        <time>2015-03-13T10:43:45Z</time>
      </trkpt>
      <trkpt lat="47.85381" lon="-2.50239">
        <ele>70.23</ele>
        <time>2015-03-13T10:43:53Z</time>
      </trkpt>
      <trkpt lat="47.85377" lon="-2.50213">
        <ele>71.73</ele>
        <time>2015-03-13T10:44:04Z</time>
      </trkpt>
      <trkpt lat="47.8538" lon="-2.50186">
        <ele>72.19</ele>
        <time>2015-03-13T10:44:25Z</time>
      </trkpt>
      <trkpt lat="47.8538" lon="-2.50158">
        <ele>73.61</ele>
        <time>2015-03-13T10:44:39Z</time>
      </trkpt>
      <trkpt lat="47.85379" lon="-2.5013">
        <ele>76.18</ele>
        <time>2015-03-13T10:44:54Z</time>
      </trkpt>
      <trkpt lat="47.85382" lon="-2.50103">
        <ele>79.14</ele>
        <time>2015-03-13T10:45:14Z</time>
      </trkpt>
      <trkpt lat="47.85387" lon="-2.50075">
        <ele>82.36</ele>
        <time>2015-03-13T10:45:35Z</time>
      </trkpt>
      <trkpt lat="47.85386" lon="-2.50047">
        <ele>83.51</ele>
        <time>2015-03-13T10:46:20Z</time>
      </trkpt>
      <trkpt lat="47.85381" lon="-2.50018">
        <ele>83.46</ele>
        <time>2015-03-13T10:46:30Z</time>
      </trkpt>
      <trkpt lat="47.85385" lon="-2.50046">
        <ele>84.92</ele>
        <time>2015-03-13T10:47:16Z</time>
      </trkpt>
      <trkpt lat="47.85376" lon="-2.50022">
        <ele>87.22</ele>
        <time>2015-03-13T10:47:38Z</time>
      </trkpt>
      <trkpt lat="47.8536" lon="-2.50011">
        <ele>85.57</ele>
        <time>2015-03-13T10:52:44Z</time>
      </trkpt>
      <trkpt lat="47.85342" lon="-2.50003">
        <ele>84.76</ele>
        <time>2015-03-13T10:52:58Z</time>
      </trkpt>
      <trkpt lat="47.85326" lon="-2.49992">
        <ele>85.1</ele>
        <time>2015-03-13T10:53:10Z</time>
      </trkpt>
      <trkpt lat="47.85308" lon="-2.49984">
        <ele>87.32</ele>
        <time>2015-03-13T10:53:29Z</time>
      </trkpt>
      <trkpt lat="47.8529" lon="-2.49974">
        <ele>88.6</ele>
        <time>2015-03-13T10:53:46Z</time>
      </trkpt>
      <trkpt lat="47.85273" lon="-2.49962">
        <ele>89.29</ele>
        <time>2015-03-13T10:54:00Z</time>
      </trkpt>
      <trkpt lat="47.85256" lon="-2.49952">
        <ele>90.71</ele>
        <time>2015-03-13T10:54:20Z</time>
      </trkpt>
      <trkpt lat="47.85238" lon="-2.49943">
        <ele>91.26</ele>
        <time>2015-03-13T10:54:34Z</time>
      </trkpt>
      <trkpt lat="47.8522" lon="-2.49934">
        <ele>92.39</ele>
        <time>2015-03-13T10:54:46Z</time>
      </trkpt>
      <trkpt lat="47.85203" lon="-2.49925">
        <ele>92.77</ele>
        <time>2015-03-13T10:55:00Z</time>
      </trkpt>
      <trkpt lat="47.85196" lon="-2.49899">
        <ele>92.49</ele>
        <time>2015-03-13T10:55:13Z</time>
      </trkpt>
      <trkpt lat="47.85205" lon="-2.49875">
        <ele>91.49</ele>
        <time>2015-03-13T10:55:28Z</time>
      </trkpt>
      <trkpt lat="47.85213" lon="-2.49851">
        <ele>90.47</ele>
        <time>2015-03-13T10:55:42Z</time>
      </trkpt>
      <trkpt lat="47.85219" lon="-2.49825">
        <ele>89.88</ele>
        <time>2015-03-13T10:55:56Z</time>
      </trkpt>
      <trkpt lat="47.85228" lon="-2.498">
        <ele>89.62</ele>
        <time>2015-03-13T10:56:13Z</time>
      </trkpt>
      <trkpt lat="47.85236" lon="-2.49775">
        <ele>89.61</ele>
        <time>2015-03-13T10:56:28Z</time>
      </trkpt>
      <trkpt lat="47.85245" lon="-2.4975">
        <ele>90.14</ele>
        <time>2015-03-13T10:56:45Z</time>
      </trkpt>
      <trkpt lat="47.85252" lon="-2.49723">
        <ele>90.32</ele>
        <time>2015-03-13T10:56:57Z</time>
      </trkpt>
      <trkpt lat="47.85257" lon="-2.49697">
        <ele>90.44</ele>
        <time>2015-03-13T10:57:12Z</time>
      </trkpt>
      <trkpt lat="47.85252" lon="-2.4967">
        <ele>89.35</ele>
        <time>2015-03-13T10:57:28Z</time>
      </trkpt>
      <trkpt lat="47.85248" lon="-2.49642">
        <ele>88.71</ele>
        <time>2015-03-13T10:57:41Z</time>
      </trkpt>
      <trkpt lat="47.85246" lon="-2.49615">
        <ele>88.4</ele>
        <time>2015-03-13T10:57:56Z</time>
      </trkpt>
      <trkpt lat="47.85242" lon="-2.49588">
        <ele>87.96</ele>
        <time>2015-03-13T10:58:10Z</time>
      </trkpt>
      <trkpt lat="47.85239" lon="-2.49561">
        <ele>86.8</ele>
        <time>2015-03-13T10:58:25Z</time>
      </trkpt>
      <trkpt lat="47.85236" lon="-2.49534">
        <ele>85.95</ele>
        <time>2015-03-13T10:58:39Z</time>
      </trkpt>
      <trkpt lat="47.85233" lon="-2.49507">
        <ele>85.2</ele>
        <time>2015-03-13T10:58:53Z</time>
      </trkpt>
      <trkpt lat="47.85228" lon="-2.49479">
        <ele>84.47</ele>
        <time>2015-03-13T10:59:06Z</time>
      </trkpt>
      <trkpt lat="47.85223" lon="-2.49453">
        <ele>83.93</ele>
        <time>2015-03-13T10:59:20Z</time>
      </trkpt>
      <trkpt lat="47.85221" lon="-2.49425">
        <ele>83.66</ele>
        <time>2015-03-13T10:59:36Z</time>
      </trkpt>
      <trkpt lat="47.85217" lon="-2.49399">
        <ele>83.51</ele>
        <time>2015-03-13T10:59:49Z</time>
      </trkpt>
      <trkpt lat="47.85213" lon="-2.4937">
        <ele>82.97</ele>
        <time>2015-03-13T11:00:04Z</time>
      </trkpt>
      <trkpt lat="47.85209" lon="-2.49344">
        <ele>82.38</ele>
        <time>2015-03-13T11:00:17Z</time>
      </trkpt>
      <trkpt lat="47.85206" lon="-2.49317">
        <ele>81.85</ele>
        <time>2015-03-13T11:00:32Z</time>
      </trkpt>
      <trkpt lat="47.85203" lon="-2.49289">
        <ele>81.56</ele>
        <time>2015-03-13T11:00:47Z</time>
      </trkpt>
      <trkpt lat="47.85201" lon="-2.49261">
        <ele>81.84</ele>
        <time>2015-03-13T11:01:03Z</time>
      </trkpt>
      <trkpt lat="47.85196" lon="-2.49235">
        <ele>82.29</ele>
        <time>2015-03-13T11:01:18Z</time>
      </trkpt>
      <trkpt lat="47.85192" lon="-2.49207">
        <ele>81.72</ele>
        <time>2015-03-13T11:01:34Z</time>
      </trkpt>
      <trkpt lat="47.85188" lon="-2.4918">
        <ele>81.14</ele>
        <time>2015-03-13T11:01:47Z</time>
      </trkpt>
      <trkpt lat="47.85186" lon="-2.49152">
        <ele>81.6</ele>
        <time>2015-03-13T11:02:00Z</time>
      </trkpt>
      <trkpt lat="47.85184" lon="-2.49124">
        <ele>83.77</ele>
        <time>2015-03-13T11:02:17Z</time>
      </trkpt>
      <trkpt lat="47.85182" lon="-2.49096">
        <ele>85.68</ele>
        <time>2015-03-13T11:02:35Z</time>
      </trkpt>
      <trkpt lat="47.85176" lon="-2.49067">
        <ele>87.98</ele>
        <time>2015-03-13T11:02:50Z</time>
      </trkpt>
      <trkpt lat="47.85171" lon="-2.49041">
        <ele>87.8</ele>
        <time>2015-03-13T11:03:03Z</time>
      </trkpt>
      <trkpt lat="47.85168" lon="-2.49012">
        <ele>84.44</ele>
        <time>2015-03-13T11:03:19Z</time>
      </trkpt>
      <trkpt lat="47.85166" lon="-2.48985">
        <ele>81.79</ele>
        <time>2015-03-13T11:03:34Z</time>
      </trkpt>
      <trkpt lat="47.85174" lon="-2.4896">
        <ele>78.68</ele>
        <time>2015-03-13T11:04:11Z</time>
      </trkpt>
      <trkpt lat="47.85192" lon="-2.48953">
        <ele>77.18</ele>
        <time>2015-03-13T11:04:28Z</time>
      </trkpt>
      <trkpt lat="47.8521" lon="-2.48947">
        <ele>77.52</ele>
        <time>2015-03-13T11:04:45Z</time>
      </trkpt>
      <trkpt lat="47.85226" lon="-2.48934">
        <ele>78.65</ele>
        <time>2015-03-13T11:04:59Z</time>
      </trkpt>
      <trkpt lat="47.85246" lon="-2.48928">
        <ele>78.61</ele>
        <time>2015-03-13T11:05:15Z</time>
      </trkpt>
      <trkpt lat="47.85264" lon="-2.48926">
        <ele>79.94</ele>
        <time>2015-03-13T11:05:29Z</time>
      </trkpt>
      <trkpt lat="47.8528" lon="-2.48911">
        <ele>80.75</ele>
        <time>2015-03-13T11:05:45Z</time>
      </trkpt>
      <trkpt lat="47.85296" lon="-2.48898">
        <ele>82</ele>
        <time>2015-03-13T11:05:59Z</time>
      </trkpt>
      <trkpt lat="47.85308" lon="-2.48878">
        <ele>83.8</ele>
        <time>2015-03-13T11:06:17Z</time>
      </trkpt>
      <trkpt lat="47.85307" lon="-2.4885">
        <ele>85.67</ele>
        <time>2015-03-13T11:06:35Z</time>
      </trkpt>
      <trkpt lat="47.8531" lon="-2.48821">
        <ele>85.71</ele>
        <time>2015-03-13T11:06:52Z</time>
      </trkpt>
      <trkpt lat="47.8532" lon="-2.48798">
        <ele>86.11</ele>
        <time>2015-03-13T11:07:09Z</time>
      </trkpt>
      <trkpt lat="47.85321" lon="-2.48771">
        <ele>84.58</ele>
        <time>2015-03-13T11:07:31Z</time>
      </trkpt>
      <trkpt lat="47.85321" lon="-2.48743">
        <ele>78.58</ele>
        <time>2015-03-13T11:08:00Z</time>
      </trkpt>
      <trkpt lat="47.8532" lon="-2.48714">
        <ele>77.81</ele>
        <time>2015-03-13T11:08:32Z</time>
      </trkpt>
      <trkpt lat="47.85325" lon="-2.48686">
        <ele>78</ele>
        <time>2015-03-13T11:08:40Z</time>
      </trkpt>
      <trkpt lat="47.85323" lon="-2.48659">
        <ele>76.11</ele>
        <time>2015-03-13T11:09:00Z</time>
      </trkpt>
      <trkpt lat="47.85335" lon="-2.48679">
        <ele>75.06</ele>
        <time>2015-03-13T11:09:23Z</time>
      </trkpt>
      <trkpt lat="47.85348" lon="-2.48703">
        <ele>76.41</ele>
        <time>2015-03-13T11:09:38Z</time>
      </trkpt>
      <trkpt lat="47.8536" lon="-2.48724">
        <ele>77.13</ele>
        <time>2015-03-13T11:09:51Z</time>
      </trkpt>
      <trkpt lat="47.8537" lon="-2.48747">
        <ele>78.3</ele>
        <time>2015-03-13T11:10:06Z</time>
      </trkpt>
      <trkpt lat="47.85384" lon="-2.48765">
        <ele>79.32</ele>
        <time>2015-03-13T11:10:24Z</time>
      </trkpt>
      <trkpt lat="47.85399" lon="-2.4878">
        <ele>76.5</ele>
        <time>2015-03-13T11:10:45Z</time>
      </trkpt>
      <trkpt lat="47.85415" lon="-2.48792">
        <ele>73.74</ele>
        <time>2015-03-13T11:10:59Z</time>
      </trkpt>
      <trkpt lat="47.85431" lon="-2.48806">
        <ele>71.57</ele>
        <time>2015-03-13T11:11:15Z</time>
      </trkpt>
      <trkpt lat="47.8545" lon="-2.48814">
        <ele>67.16</ele>
        <time>2015-03-13T11:11:34Z</time>
      </trkpt>
      <trkpt lat="47.85467" lon="-2.48825">
        <ele>64.8</ele>
        <time>2015-03-13T11:11:49Z</time>
      </trkpt>
      <trkpt lat="47.85485" lon="-2.48834">
        <ele>63.15</ele>
        <time>2015-03-13T11:12:02Z</time>
      </trkpt>
      <trkpt lat="47.85503" lon="-2.4884">
        <ele>58.19</ele>
        <time>2015-03-13T11:12:26Z</time>
      </trkpt>
      <trkpt lat="47.8552" lon="-2.4885">
        <ele>56.34</ele>
        <time>2015-03-13T11:12:43Z</time>
      </trkpt>
      <trkpt lat="47.85536" lon="-2.48862">
        <ele>55.17</ele>
        <time>2015-03-13T11:12:56Z</time>
      </trkpt>
      <trkpt lat="47.8555" lon="-2.4888">
        <ele>54.27</ele>
        <time>2015-03-13T11:13:09Z</time>
      </trkpt>
      <trkpt lat="47.8556" lon="-2.48903">
        <ele>55.18</ele>
        <time>2015-03-13T11:13:24Z</time>
      </trkpt>
      <trkpt lat="47.85566" lon="-2.48929">
        <ele>55.71</ele>
        <time>2015-03-13T11:13:38Z</time>
      </trkpt>
      <trkpt lat="47.85577" lon="-2.48953">
        <ele>55</ele>
        <time>2015-03-13T11:13:56Z</time>
      </trkpt>
      <trkpt lat="47.85594" lon="-2.48945">
        <ele>53.29</ele>
        <time>2015-03-13T11:14:09Z</time>
      </trkpt>
      <trkpt lat="47.85612" lon="-2.48939">
        <ele>51.57</ele>
        <time>2015-03-13T11:14:24Z</time>
      </trkpt>
      <trkpt lat="47.85627" lon="-2.48956">
        <ele>49.56</ele>
        <time>2015-03-13T11:14:39Z</time>
      </trkpt>
      <trkpt lat="47.8564" lon="-2.48977">
        <ele>49.6</ele>
        <time>2015-03-13T11:14:55Z</time>
      </trkpt>
      <trkpt lat="47.85653" lon="-2.48997">
        <ele>49.89</ele>
        <time>2015-03-13T11:15:12Z</time>
      </trkpt>
      <trkpt lat="47.85665" lon="-2.49017">
        <ele>51.28</ele>
        <time>2015-03-13T11:15:33Z</time>
      </trkpt>
      <trkpt lat="47.85671" lon="-2.49043">
        <ele>51.31</ele>
        <time>2015-03-13T11:15:55Z</time>
      </trkpt>
      <trkpt lat="47.85675" lon="-2.4907">
        <ele>53.77</ele>
        <time>2015-03-13T11:16:15Z</time>
      </trkpt>
      <trkpt lat="47.85687" lon="-2.49091">
        <ele>56.13</ele>
        <time>2015-03-13T11:16:46Z</time>
      </trkpt>
      <trkpt lat="47.85702" lon="-2.49108">
        <ele>56.72</ele>
        <time>2015-03-13T11:17:18Z</time>
      </trkpt>
      <trkpt lat="47.8572" lon="-2.4911">
        <ele>58.31</ele>
        <time>2015-03-13T11:17:42Z</time>
      </trkpt>
      <trkpt lat="47.85723" lon="-2.49137">
        <ele>55.6</ele>
        <time>2015-03-13T11:18:07Z</time>
      </trkpt>
      <trkpt lat="47.85721" lon="-2.49163">
        <ele>56.48</ele>
        <time>2015-03-13T11:18:29Z</time>
      </trkpt>
      <trkpt lat="47.85704" lon="-2.49179">
        <ele>56.19</ele>
        <time>2015-03-13T11:19:00Z</time>
      </trkpt>
      <trkpt lat="47.85693" lon="-2.492">
        <ele>56.71</ele>
        <time>2015-03-13T11:19:23Z</time>
      </trkpt>
      <trkpt lat="47.85684" lon="-2.49226">
        <ele>59.24</ele>
        <time>2015-03-13T11:19:35Z</time>
      </trkpt>
      <trkpt lat="47.85682" lon="-2.49253">
        <ele>61.31</ele>
        <time>2015-03-13T11:19:55Z</time>
      </trkpt>
      <trkpt lat="47.8568" lon="-2.4928">
        <ele>60.7</ele>
        <time>2015-03-13T11:20:21Z</time>
      </trkpt>
      <trkpt lat="47.85679" lon="-2.49308">
        <ele>59.01</ele>
        <time>2015-03-13T11:20:40Z</time>
      </trkpt>
      <trkpt lat="47.85682" lon="-2.49335">
        <ele>59.15</ele>
        <time>2015-03-13T11:20:58Z</time>
      </trkpt>
      <trkpt lat="47.85678" lon="-2.49362">
        <ele>59.15</ele>
        <time>2015-03-13T11:21:15Z</time>
      </trkpt>
      <trkpt lat="47.85683" lon="-2.49388">
        <ele>60.48</ele>
        <time>2015-03-13T11:21:36Z</time>
      </trkpt>
      <trkpt lat="47.85698" lon="-2.49404">
        <ele>63.22</ele>
        <time>2015-03-13T11:21:55Z</time>
      </trkpt>
      <trkpt lat="47.85715" lon="-2.49416">
        <ele>66.81</ele>
        <time>2015-03-13T11:22:35Z</time>
      </trkpt>
      <trkpt lat="47.8572" lon="-2.49443">
        <ele>70.49</ele>
        <time>2015-03-13T11:23:06Z</time>
      </trkpt>
      <trkpt lat="47.85725" lon="-2.4947">
        <ele>73.27</ele>
        <time>2015-03-13T11:23:23Z</time>
      </trkpt>
      <trkpt lat="47.85729" lon="-2.49497">
        <ele>73.65</ele>
        <time>2015-03-13T11:23:47Z</time>
      </trkpt>
      <trkpt lat="47.85728" lon="-2.49525">
        <ele>72.91</ele>
        <time>2015-03-13T11:23:57Z</time>
      </trkpt>
      <trkpt lat="47.85735" lon="-2.49555">
        <ele>72.02</ele>
        <time>2015-03-13T11:24:14Z</time>
      </trkpt>
      <trkpt lat="47.85736" lon="-2.49583">
        <ele>69.86</ele>
        <time>2015-03-13T11:24:31Z</time>
      </trkpt>
      <trkpt lat="47.85734" lon="-2.49609">
        <ele>68.78</ele>
        <time>2015-03-13T11:24:47Z</time>
      </trkpt>
      <trkpt lat="47.85731" lon="-2.49636">
        <ele>67.91</ele>
        <time>2015-03-13T11:25:01Z</time>
      </trkpt>
      <trkpt lat="47.85724" lon="-2.49661">
        <ele>67.85</ele>
        <time>2015-03-13T11:25:14Z</time>
      </trkpt>
      <trkpt lat="47.85721" lon="-2.49689">
        <ele>67.57</ele>
        <time>2015-03-13T11:25:34Z</time>
      </trkpt>
      <trkpt lat="47.85717" lon="-2.49715">
        <ele>63.85</ele>
        <time>2015-03-13T11:25:54Z</time>
      </trkpt>
      <trkpt lat="47.85712" lon="-2.49741">
        <ele>61.06</ele>
        <time>2015-03-13T11:26:09Z</time>
      </trkpt>
      <trkpt lat="47.85706" lon="-2.49766">
        <ele>58.45</ele>
        <time>2015-03-13T11:26:24Z</time>
      </trkpt>
      <trkpt lat="47.85708" lon="-2.49794">
        <ele>53.38</ele>
        <time>2015-03-13T11:26:46Z</time>
      </trkpt>
      <trkpt lat="47.85705" lon="-2.49821">
        <ele>52.05</ele>
        <time>2015-03-13T11:27:03Z</time>
      </trkpt>
      <trkpt lat="47.85703" lon="-2.49848">
        <ele>51.97</ele>
        <time>2015-03-13T11:27:20Z</time>
      </trkpt>
      <trkpt lat="47.85698" lon="-2.49875">
        <ele>52.33</ele>
        <time>2015-03-13T11:27:33Z</time>
      </trkpt>
      <trkpt lat="47.85694" lon="-2.49901">
        <ele>51.4</ele>
        <time>2015-03-13T11:27:49Z</time>
      </trkpt>
      <trkpt lat="47.85691" lon="-2.49929">
        <ele>49.66</ele>
        <time>2015-03-13T11:28:09Z</time>
      </trkpt>
      <trkpt lat="47.85688" lon="-2.49957">
        <ele>49.36</ele>
        <time>2015-03-13T11:28:27Z</time>
      </trkpt>
      <trkpt lat="47.85688" lon="-2.49984">
        <ele>49.5</ele>
        <time>2015-03-13T11:28:47Z</time>
      </trkpt>
      <trkpt lat="47.85691" lon="-2.50012">
        <ele>51.15</ele>
        <time>2015-03-13T11:29:03Z</time>
      </trkpt>
      <trkpt lat="47.85695" lon="-2.50038">
        <ele>52.6</ele>
        <time>2015-03-13T11:29:20Z</time>
      </trkpt>
      <trkpt lat="47.85693" lon="-2.50065">
        <ele>54.99</ele>
        <time>2015-03-13T11:29:33Z</time>
      </trkpt>
      <trkpt lat="47.85687" lon="-2.50092">
        <ele>55.92</ele>
        <time>2015-03-13T11:29:53Z</time>
      </trkpt>
      <trkpt lat="47.85679" lon="-2.50117">
        <ele>54.33</ele>
        <time>2015-03-13T11:30:10Z</time>
      </trkpt>
      <trkpt lat="47.85677" lon="-2.50145">
        <ele>52.24</ele>
        <time>2015-03-13T11:30:26Z</time>
      </trkpt>
      <trkpt lat="47.8568" lon="-2.50173">
        <ele>58.34</ele>
        <time>2015-03-13T11:30:46Z</time>
      </trkpt>
      <trkpt lat="47.85682" lon="-2.502">
        <ele>60.37</ele>
        <time>2015-03-13T11:31:14Z</time>
      </trkpt>
      <trkpt lat="47.8569" lon="-2.50224">
        <ele>60.65</ele>
        <time>2015-03-13T11:31:31Z</time>
      </trkpt>
      <trkpt lat="47.85697" lon="-2.50255">
        <ele>62.67</ele>
        <time>2015-03-13T11:31:56Z</time>
      </trkpt>
      <trkpt lat="47.85708" lon="-2.50277">
        <ele>65.03</ele>
        <time>2015-03-13T11:32:06Z</time>
      </trkpt>
      <trkpt lat="47.85723" lon="-2.50295">
        <ele>66.18</ele>
        <time>2015-03-13T11:32:18Z</time>
      </trkpt>
      <trkpt lat="47.85738" lon="-2.50311">
        <ele>66.38</ele>
        <time>2015-03-13T11:32:36Z</time>
      </trkpt>
      <trkpt lat="47.85755" lon="-2.50324">
        <ele>67.09</ele>
        <time>2015-03-13T11:32:55Z</time>
      </trkpt>
      <trkpt lat="47.85772" lon="-2.50336">
        <ele>65.52</ele>
        <time>2015-03-13T11:33:19Z</time>
      </trkpt>
      <trkpt lat="47.8579" lon="-2.50342">
        <ele>65.19</ele>
        <time>2015-03-13T11:33:31Z</time>
      </trkpt>
      <trkpt lat="47.85808" lon="-2.50349">
        <ele>64.81</ele>
        <time>2015-03-13T11:33:45Z</time>
      </trkpt>
      <trkpt lat="47.85824" lon="-2.50363">
        <ele>63.91</ele>
        <time>2015-03-13T11:34:02Z</time>
      </trkpt>
      <trkpt lat="47.85837" lon="-2.50382">
        <ele>61.85</ele>
        <time>2015-03-13T11:34:24Z</time>
      </trkpt>
      <trkpt lat="47.85855" lon="-2.5039">
        <ele>58.89</ele>
        <time>2015-03-13T11:34:44Z</time>
      </trkpt>
      <trkpt lat="47.85873" lon="-2.50398">
        <ele>56.06</ele>
        <time>2015-03-13T11:35:06Z</time>
      </trkpt>
      <trkpt lat="47.85891" lon="-2.50409">
        <ele>55.6</ele>
        <time>2015-03-13T11:35:20Z</time>
      </trkpt>
      <trkpt lat="47.85909" lon="-2.50409">
        <ele>55.05</ele>
        <time>2015-03-13T11:35:38Z</time>
      </trkpt>
      <trkpt lat="47.85926" lon="-2.50419">
        <ele>54.26</ele>
        <time>2015-03-13T11:35:49Z</time>
      </trkpt>
      <trkpt lat="47.85941" lon="-2.50436">
        <ele>53.98</ele>
        <time>2015-03-13T11:36:06Z</time>
      </trkpt>
      <trkpt lat="47.85959" lon="-2.50443">
        <ele>54.08</ele>
        <time>2015-03-13T11:36:16Z</time>
      </trkpt>
      <trkpt lat="47.85976" lon="-2.50458">
        <ele>56.11</ele>
        <time>2015-03-13T11:36:27Z</time>
      </trkpt>
      <trkpt lat="47.85994" lon="-2.50466">
        <ele>60.37</ele>
        <time>2015-03-13T11:36:39Z</time>
      </trkpt>
      <trkpt lat="47.86012" lon="-2.50462">
        <ele>63.65</ele>
        <time>2015-03-13T11:36:56Z</time>
      </trkpt>
      <trkpt lat="47.8603" lon="-2.50465">
        <ele>65.58</ele>
        <time>2015-03-13T11:37:12Z</time>
      </trkpt>
      <trkpt lat="47.86047" lon="-2.50474">
        <ele>66.25</ele>
        <time>2015-03-13T11:37:27Z</time>
      </trkpt>
      <trkpt lat="47.8606" lon="-2.50493">
        <ele>67.34</ele>
        <time>2015-03-13T11:37:43Z</time>
      </trkpt>
      <trkpt lat="47.86069" lon="-2.50516">
        <ele>66.65</ele>
        <time>2015-03-13T11:38:14Z</time>
      </trkpt>
      <trkpt lat="47.86078" lon="-2.50542">
        <ele>64.42</ele>
        <time>2015-03-13T11:38:42Z</time>
      </trkpt>
      <trkpt lat="47.86089" lon="-2.50565">
        <ele>63.36</ele>
        <time>2015-03-13T11:38:56Z</time>
      </trkpt>
      <trkpt lat="47.86098" lon="-2.50589">
        <ele>62.64</ele>
        <time>2015-03-13T11:39:16Z</time>
      </trkpt>
      <trkpt lat="47.86105" lon="-2.50614">
        <ele>63.95</ele>
        <time>2015-03-13T11:39:39Z</time>
      </trkpt>
      <trkpt lat="47.86104" lon="-2.50644">
        <ele>64.25</ele>
        <time>2015-03-13T11:40:01Z</time>
      </trkpt>
      <trkpt lat="47.86105" lon="-2.50672">
        <ele>66.52</ele>
        <time>2015-03-13T11:40:12Z</time>
      </trkpt>
      <trkpt lat="47.86102" lon="-2.507">
        <ele>69.17</ele>
        <time>2015-03-13T11:40:30Z</time>
      </trkpt>
      <trkpt lat="47.86099" lon="-2.50728">
        <ele>68.41</ele>
        <time>2015-03-13T11:40:52Z</time>
      </trkpt>
      <trkpt lat="47.86101" lon="-2.50755">
        <ele>70.37</ele>
        <time>2015-03-13T11:41:39Z</time>
      </trkpt>
      <trkpt lat="47.86104" lon="-2.50783">
        <ele>71.52</ele>
        <time>2015-03-13T11:41:48Z</time>
      </trkpt>
      <trkpt lat="47.86108" lon="-2.5081">
        <ele>76.55</ele>
        <time>2015-03-13T11:42:12Z</time>
      </trkpt>
      <trkpt lat="47.86113" lon="-2.50839">
        <ele>79.34</ele>
        <time>2015-03-13T11:42:26Z</time>
      </trkpt>
      <trkpt lat="47.8612" lon="-2.50863">
        <ele>82.86</ele>
        <time>2015-03-13T11:42:37Z</time>
      </trkpt>
      <trkpt lat="47.86133" lon="-2.50883">
        <ele>86.91</ele>
        <time>2015-03-13T11:42:53Z</time>
      </trkpt>
      <trkpt lat="47.8615" lon="-2.50894">
        <ele>87.86</ele>
        <time>2015-03-13T11:43:06Z</time>
      </trkpt>
      <trkpt lat="47.86167" lon="-2.50909">
        <ele>82.6</ele>
        <time>2015-03-13T11:43:28Z</time>
      </trkpt>
      <trkpt lat="47.86182" lon="-2.50925">
        <ele>83.33</ele>
        <time>2015-03-13T11:43:35Z</time>
      </trkpt>
      <trkpt lat="47.86193" lon="-2.50946">
        <ele>94.97</ele>
        <time>2015-03-13T11:44:08Z</time>
      </trkpt>
      <trkpt lat="47.86204" lon="-2.50968">
        <ele>96.35</ele>
        <time>2015-03-13T11:44:17Z</time>
      </trkpt>
      <trkpt lat="47.86209" lon="-2.50994">
        <ele>95.02</ele>
        <time>2015-03-13T11:44:33Z</time>
      </trkpt>
      <trkpt lat="47.86216" lon="-2.5102">
        <ele>91.3</ele>
        <time>2015-03-13T11:44:59Z</time>
      </trkpt>
      <trkpt lat="47.86225" lon="-2.51046">
        <ele>90.25</ele>
        <time>2015-03-13T11:45:09Z</time>
      </trkpt>
      <trkpt lat="47.86237" lon="-2.51067">
        <ele>88.56</ele>
        <time>2015-03-13T11:45:28Z</time>
      </trkpt>
      <trkpt lat="47.86255" lon="-2.51073">
        <ele>86.63</ele>
        <time>2015-03-13T11:45:51Z</time>
      </trkpt>
      <trkpt lat="47.86269" lon="-2.51091">
        <ele>83.21</ele>
        <time>2015-03-13T11:46:12Z</time>
      </trkpt>
      <trkpt lat="47.86279" lon="-2.51113">
        <ele>80.41</ele>
        <time>2015-03-13T11:46:34Z</time>
      </trkpt>
      <trkpt lat="47.86287" lon="-2.51139">
        <ele>79.36</ele>
        <time>2015-03-13T11:46:53Z</time>
      </trkpt>
      <trkpt lat="47.86297" lon="-2.51162">
        <ele>77.65</ele>
        <time>2015-03-13T11:47:20Z</time>
      </trkpt>
      <trkpt lat="47.86303" lon="-2.51187">
        <ele>76.27</ele>
        <time>2015-03-13T11:47:31Z</time>
      </trkpt>
      <trkpt lat="47.86303" lon="-2.51218">
        <ele>79.06</ele>
        <time>2015-03-13T11:47:49Z</time>
      </trkpt>
      <trkpt lat="47.86305" lon="-2.51246">
        <ele>81.65</ele>
        <time>2015-03-13T11:48:01Z</time>
      </trkpt>
      <trkpt lat="47.86321" lon="-2.51262">
        <ele>81.02</ele>
        <time>2015-03-13T11:48:30Z</time>
      </trkpt>
      <trkpt lat="47.86323" lon="-2.5129">
        <ele>76.65</ele>
        <time>2015-03-13T11:49:33Z</time>
      </trkpt>
      <trkpt lat="47.86319" lon="-2.51318">
        <ele>76.86</ele>
        <time>2015-03-13T11:49:43Z</time>
      </trkpt>
      <trkpt lat="47.86311" lon="-2.51343">
        <ele>77.85</ele>
        <time>2015-03-13T11:49:49Z</time>
      </trkpt>
      <trkpt lat="47.8631" lon="-2.51372">
        <ele>81.91</ele>
        <time>2015-03-13T11:50:14Z</time>
      </trkpt>
      <trkpt lat="47.86307" lon="-2.51401">
        <ele>83.12</ele>
        <time>2015-03-13T11:50:29Z</time>
      </trkpt>
      <trkpt lat="47.86305" lon="-2.51428">
        <ele>80.76</ele>
        <time>2015-03-13T11:50:56Z</time>
      </trkpt>
      <trkpt lat="47.86309" lon="-2.51456">
        <ele>80.8</ele>
        <time>2015-03-13T11:51:15Z</time>
      </trkpt>
      <trkpt lat="47.86321" lon="-2.51478">
        <ele>79.51</ele>
        <time>2015-03-13T11:51:34Z</time>
      </trkpt>
      <trkpt lat="47.86337" lon="-2.51492">
        <ele>78.21</ele>
        <time>2015-03-13T11:51:59Z</time>
      </trkpt>
      <trkpt lat="47.86354" lon="-2.51502">
        <ele>73.86</ele>
        <time>2015-03-13T11:52:16Z</time>
      </trkpt>
      <trkpt lat="47.86372" lon="-2.51509">
        <ele>72.07</ele>
        <time>2015-03-13T11:52:47Z</time>
      </trkpt>
      <trkpt lat="47.86384" lon="-2.51533">
        <ele>75.75</ele>
        <time>2015-03-13T11:53:12Z</time>
      </trkpt>
      <trkpt lat="47.86394" lon="-2.51555">
        <ele>79.26</ele>
        <time>2015-03-13T11:53:24Z</time>
      </trkpt>
      <trkpt lat="47.86409" lon="-2.51574">
        <ele>82.04</ele>
        <time>2015-03-13T11:53:35Z</time>
      </trkpt>
      <trkpt lat="47.86421" lon="-2.51594">
        <ele>82.57</ele>
        <time>2015-03-13T11:53:56Z</time>
      </trkpt>
      <trkpt lat="47.86424" lon="-2.51621">
        <ele>81.92</ele>
        <time>2015-03-13T11:54:22Z</time>
      </trkpt>
      <trkpt lat="47.86432" lon="-2.51646">
        <ele>84.4</ele>
        <time>2015-03-13T11:54:37Z</time>
      </trkpt>
      <trkpt lat="47.86433" lon="-2.51673">
        <ele>84.43</ele>
        <time>2015-03-13T11:54:54Z</time>
      </trkpt>
      <trkpt lat="47.86437" lon="-2.517">
        <ele>86.4</ele>
        <time>2015-03-13T11:55:26Z</time>
      </trkpt>
      <trkpt lat="47.86453" lon="-2.51715">
        <ele>87.22</ele>
        <time>2015-03-13T11:55:37Z</time>
      </trkpt>
      <trkpt lat="47.86464" lon="-2.51736">
        <ele>84.38</ele>
        <time>2015-03-13T11:56:00Z</time>
      </trkpt>
      <trkpt lat="47.86477" lon="-2.51758">
        <ele>82.46</ele>
        <time>2015-03-13T11:56:20Z</time>
      </trkpt>
      <trkpt lat="47.86496" lon="-2.51773">
        <ele>88.03</ele>
        <time>2015-03-13T11:56:40Z</time>
      </trkpt>
      <trkpt lat="47.86505" lon="-2.51796">
        <ele>91.81</ele>
        <time>2015-03-13T11:56:51Z</time>
      </trkpt>
      <trkpt lat="47.86502" lon="-2.51823">
        <ele>98.81</ele>
        <time>2015-03-13T11:57:06Z</time>
      </trkpt>
      <trkpt lat="47.86491" lon="-2.51845">
        <ele>102.96</ele>
        <time>2015-03-13T11:57:31Z</time>
      </trkpt>
      <trkpt lat="47.86481" lon="-2.51868">
        <ele>103.25</ele>
        <time>2015-03-13T11:57:48Z</time>
      </trkpt>
      <trkpt lat="47.8648" lon="-2.51896">
        <ele>105.7</ele>
        <time>2015-03-13T11:58:05Z</time>
      </trkpt>
      <trkpt lat="47.86477" lon="-2.51922">
        <ele>105.89</ele>
        <time>2015-03-13T11:58:29Z</time>
      </trkpt>
      <trkpt lat="47.86482" lon="-2.51949">
        <ele>104.27</ele>
        <time>2015-03-13T11:58:47Z</time>
      </trkpt>
      <trkpt lat="47.86475" lon="-2.51974">
        <ele>103.17</ele>
        <time>2015-03-13T11:59:07Z</time>
      </trkpt>
      <trkpt lat="47.8647" lon="-2.52001">
        <ele>102.33</ele>
        <time>2015-03-13T11:59:25Z</time>
      </trkpt>
      <trkpt lat="47.86466" lon="-2.52028">
        <ele>103.33</ele>
        <time>2015-03-13T11:59:44Z</time>
      </trkpt>
      <trkpt lat="47.86467" lon="-2.52055">
        <ele>104.64</ele>
        <time>2015-03-13T12:00:05Z</time>
      </trkpt>
      <trkpt lat="47.86464" lon="-2.52082">
        <ele>106.18</ele>
        <time>2015-03-13T12:00:26Z</time>
      </trkpt>
      <trkpt lat="47.86461" lon="-2.52109">
        <ele>108.43</ele>
        <time>2015-03-13T12:00:47Z</time>
      </trkpt>
      <trkpt lat="47.86459" lon="-2.52136">
        <ele>109.69</ele>
        <time>2015-03-13T12:01:06Z</time>
      </trkpt>
      <trkpt lat="47.86456" lon="-2.52162">
        <ele>112.36</ele>
        <time>2015-03-13T12:01:28Z</time>
      </trkpt>
      <trkpt lat="47.86455" lon="-2.5219">
        <ele>114.54</ele>
        <time>2015-03-13T12:01:47Z</time>
      </trkpt>
      <trkpt lat="47.86452" lon="-2.52217">
        <ele>116.49</ele>
        <time>2015-03-13T12:02:08Z</time>
      </trkpt>
      <trkpt lat="47.86449" lon="-2.52244">
        <ele>119.27</ele>
        <time>2015-03-13T12:02:29Z</time>
      </trkpt>
      <trkpt lat="47.86447" lon="-2.52271">
        <ele>121.55</ele>
        <time>2015-03-13T12:02:47Z</time>
      </trkpt>
      <trkpt lat="47.86429" lon="-2.52277">
        <ele>122.79</ele>
        <time>2015-03-13T12:03:17Z</time>
      </trkpt>
    </trkseg>
  </trk>
</gpx>